• Join FlightAware (Why Join?)
  • Login
  • US Flag 
05:31AM EDT


 

Airport Tracker/Info


-or-


 

Live Flight TrackerFlight Track Log ✈ N234CE ✈ 23-May-2013 ✈ PAFA / FAI - PAFA / FAI

Flight Track Log - Related Links

Times and Time Zones

All times are in EDT time to prevent confusion due to time zone crossing. See the N234CE flight status page for this flight to view local times or setup timezone preferences in your user account.

Time Position Orientation Groundspeed Altitude Reporting Facility
EDT Latitude Longitude Course Direction KTS MPH feet Rate Location/Type
06:51PM 64.7500 -147.9833 232° Southwest 120 138 3,900  Level Anchorage Center
06:52PM 64.7333 -148.0500 240° Southwest 110 127 5,000 1,140 Climbing Anchorage Center
06:53PM 64.7333 -148.1167 270° West 110 127 6,200 1,140 Climbing Anchorage Center
06:54PM 64.7167 -148.2000 245° Southwest 130 150 7,300 1,200 Climbing Anchorage Center
06:55PM 64.8151 -147.8564 240° Southwest  Level Estimated
06:55PM 64.7000 -148.2667 240° Southwest 120 138 8,600  Level Anchorage Center
06:56PM 64.8151 -147.8564 245° Southwest  Level Estimated
06:56PM 64.7000 -148.3500 270° West 120 138 9,600  Level Anchorage Center
06:57PM 64.8151 -147.8564 232° Southwest  Level Estimated
06:57PM 64.6833 -148.4167 240° Southwest 140 161 10,500  Level Anchorage Center
06:58PM 64.6667 -148.4833 240° Southwest 110 127 11,400 960 Climbing Anchorage Center
06:59PM 64.6500 -148.5667 245° Southwest 130 150 12,500 960 Climbing Anchorage Center
07:00PM 64.6500 -148.6500 270° West 130 150 13,400 960 Climbing Anchorage Center
07:01PM 64.6333 -148.7333 245° Southwest 130 150 14,500 900 Climbing Anchorage Center
07:02PM 64.6167 -148.8000 240° Southwest 160 184 15,300 900 Climbing Anchorage Center
07:03PM 64.6167 -148.8833 270° West 140 161 16,400 900 Climbing Anchorage Center
07:04PM 64.6000 -148.9667 245° Southwest 140 161 17,200 780 Climbing Anchorage Center
07:05PM 64.5833 -149.0500 245° Southwest 130 150 18,000 720 Climbing Anchorage Center
07:06PM 64.5833 -149.1167 270° West 170 196 18,700 660 Climbing Anchorage Center
07:07PM 64.6333 -149.1167 360° North 160 184 19,400 720 Climbing Anchorage Center
07:08PM 64.6667 -149.1000 12° North 180 207 20,200 840 Climbing Anchorage Center
07:09PM 64.7167 -149.0833 North 150 173 21,100 900 Climbing Anchorage Center
07:10PM 64.7500 -149.0833 360° North 150 173 22,000 720 Climbing Anchorage Center
07:11PM 64.8000 -149.0667 North 160 184 22,600 660 Climbing Anchorage Center
07:12PM 64.8333 -149.0500 12° North 150 173 23,400 660 Climbing Anchorage Center
07:13PM 64.8833 -149.0333 North 160 184 24,000 300 Climbing Anchorage Center
07:14PM 64.9167 -149.0333 360° North 160 184 24,000  Level Anchorage Center
07:15PM 64.9667 -149.0333 360° North 150 173 24,000 -480 Level Anchorage Center
07:17PM 65.0667 -149.0000 North 210 242 22,600 -1,020 Descending Anchorage Center
07:18PM 65.1333 -149.0000 360° North 230 265 21,100 -840 Descending Anchorage Center
07:19PM 65.1833 -148.9833 North 190 219 21,000 -60 Descending Anchorage Center
07:20PM 65.2333 -148.9500 16° North 170 196 21,000 -360 Level Anchorage Center
07:21PM 65.2667 -148.9333 12° North 160 184 20,300 -1,500 Descending Anchorage Center
07:22PM 65.3333 -148.9333 360° North 230 265 18,000 -1,200 Descending Anchorage Center
07:23PM 65.3833 -148.9167 North 200 230 18,000  Level Anchorage Center
07:24PM 65.3667 -148.8500 121° Southeast 160 184 18,000 -300 Level Anchorage Center
07:25PM 65.3333 -148.8333 168° South 160 184 17,500 -1,200 Descending Anchorage Center
07:26PM 65.2833 -148.8333 180° South 190 219 15,700 -1,200 Descending Anchorage Center
07:27PM 65.2333 -148.8167 172° South 180 207 15,100 -300 Descending Anchorage Center
07:28PM 65.1833 -148.8000 172° South 150 173 15,100 -480 Level Anchorage Center
07:29PM 65.1500 -148.7833 168° South 180 207 14,200 -1,560 Descending Anchorage Center
07:30PM 65.0833 -148.7667 174° South 210 242 12,000 -1,080 Descending Anchorage Center
07:31PM 65.0500 -148.7667 180° South 140 161 12,100  Climbing Anchorage Center
07:32PM 65.0167 -148.7500 168° South 140 161 12,100 -600 Level Anchorage Center
07:33PM 64.9667 -148.7500 180° South 160 184 11,000 -1,080 Descending Anchorage Center
07:34PM 64.9167 -148.7333 172° South 170 196 10,000 -540 Descending Anchorage Center
07:35PM 64.8833 -148.7333 180° South 150 173 10,000 -180 Level Anchorage Center
07:36PM 64.8333 -148.7167 172° South 160 184 9,700 -900 Descending Anchorage Center
07:37PM 64.7833 -148.7000 172° South 190 219 8,300 -900 Descending Anchorage Center
07:38PM 64.7333 -148.6833 172° South 170 196 8,000 -180 Descending Anchorage Center
07:39PM 64.6833 -148.6667 172° South 150 173 8,000 -300 Level Anchorage Center
07:40PM 64.6500 -148.6500 168° South 150 173 7,400 -1,020 Descending Anchorage Center
07:41PM 64.6000 -148.6333 172° South 190 219 6,000 -720 Descending Anchorage Center
07:42PM 64.5500 -148.6167 172° South 140 161 6,000 -540 Level Anchorage Center
07:44PM 64.5000 -148.6000 172° South 180 207 4,700 -900 Descending Anchorage Center